sensor_id;sensor_type;location;lat;lon;timestamp;P1;durP1;ratioP1;P2;durP2;ratioP2
74421;SDS011;62856;51.446;8.360;2023-07-13T09:46:21;4.25;;;1.60;;
74421;SDS011;62856;51.446;8.360;2023-07-13T09:48:49;4.85;;;1.38;;
74421;SDS011;62856;51.446;8.360;2023-07-13T09:51:14;6.95;;;1.80;;
74421;SDS011;62856;51.446;8.360;2023-07-13T09:53:41;4.80;;;1.42;;
74421;SDS011;62856;51.446;8.360;2023-07-13T09:56:18;7.90;;;1.98;;
74421;SDS011;62856;51.446;8.360;2023-07-13T09:58:45;5.50;;;1.70;;
74421;SDS011;62856;51.446;8.360;2023-07-13T10:01:11;5.10;;;1.70;;
74421;SDS011;62856;51.446;8.360;2023-07-13T10:03:37;5.05;;;1.70;;
74421;SDS011;62856;51.446;8.360;2023-07-13T10:06:16;6.50;;;1.70;;
74421;SDS011;62856;51.446;8.360;2023-07-13T10:08:47;9.57;;;2.60;;
74421;SDS011;62856;51.446;8.360;2023-07-13T10:11:49;7.28;;;1.70;;
74421;SDS011;62856;51.446;8.360;2023-07-13T10:14:17;4.78;;;1.40;;
74421;SDS011;62856;51.446;8.360;2023-07-13T10:16:45;4.78;;;1.92;;
74421;SDS011;62856;51.446;8.360;2023-07-13T10:19:19;5.57;;;1.60;;
74421;SDS011;62856;51.446;8.360;2023-07-13T10:24:21;6.38;;;1.80;;
74421;SDS011;62856;51.446;8.360;2023-07-13T10:26:52;6.60;;;2.03;;
74421;SDS011;62856;51.446;8.360;2023-07-13T10:29:22;4.80;;;1.70;;
74421;SDS011;62856;51.446;8.360;2023-07-13T10:31:51;4.70;;;1.92;;
74421;SDS011;62856;51.446;8.360;2023-07-13T10:34:16;6.20;;;1.90;;
74421;SDS011;62856;51.446;8.360;2023-07-13T10:36:43;7.45;;;2.10;;
74421;SDS011;62856;51.446;8.360;2023-07-13T10:39:21;5.53;;;2.10;;
74421;SDS011;62856;51.446;8.360;2023-07-13T10:41:57;6.38;;;2.35;;
74421;SDS011;62856;51.446;8.360;2023-07-13T10:44:26;7.47;;;2.13;;
74421;SDS011;62856;51.446;8.360;2023-07-13T10:47:06;5.57;;;2.08;;
74421;SDS011;62856;51.446;8.360;2023-07-13T10:49:36;6.78;;;2.33;;
74421;SDS011;62856;51.446;8.360;2023-07-13T10:52:03;7.35;;;2.42;;
74421;SDS011;62856;51.446;8.360;2023-07-13T10:59:46;6.30;;;2.38;;
74421;SDS011;62856;51.446;8.360;2023-07-13T11:02:34;7.28;;;2.63;;
74421;SDS011;62856;51.446;8.360;2023-07-13T11:05:01;7.38;;;2.60;;
74421;SDS011;62856;51.446;8.360;2023-07-13T11:08:13;5.97;;;2.20;;
74421;SDS011;62856;51.446;8.360;2023-07-13T11:10:57;5.97;;;2.33;;
74421;SDS011;62856;51.446;8.360;2023-07-13T11:21:27;7.65;;;2.42;;
74421;SDS011;62856;51.446;8.360;2023-07-13T11:24:17;6.53;;;2.28;;
74421;SDS011;62856;51.446;8.360;2023-07-13T11:31:43;7.25;;;2.53;;
74421;SDS011;62856;51.446;8.360;2023-07-13T11:34:16;6.03;;;2.40;;
74421;SDS011;62856;51.446;8.360;2023-07-13T11:36:50;4.82;;;2.03;;
74421;SDS011;62856;51.446;8.360;2023-07-13T11:39:32;7.03;;;2.38;;
74421;SDS011;62856;51.446;8.360;2023-07-13T11:42:04;9.52;;;2.55;;
74421;SDS011;62856;51.446;8.360;2023-07-13T11:44:40;7.47;;;2.50;;
74421;SDS011;62856;51.446;8.360;2023-07-13T11:47:14;5.70;;;2.30;;
74421;SDS011;62856;51.446;8.360;2023-07-13T11:49:48;6.32;;;2.72;;
74421;SDS011;62856;51.446;8.360;2023-07-13T11:52:17;7.05;;;2.33;;
74421;SDS011;62856;51.446;8.360;2023-07-13T11:54:50;4.05;;;1.75;;
74421;SDS011;62856;51.446;8.360;2023-07-13T11:59:51;6.70;;;2.15;;
74421;SDS011;62856;51.446;8.360;2023-07-13T12:02:29;5.32;;;2.00;;
74421;SDS011;62856;51.446;8.360;2023-07-13T12:05:02;7.85;;;2.40;;
74421;SDS011;62856;51.446;8.360;2023-07-13T12:07:30;8.25;;;2.05;;
74421;SDS011;62856;51.446;8.360;2023-07-13T12:12:53;5.47;;;2.13;;
74421;SDS011;62856;51.446;8.360;2023-07-13T12:15:21;6.70;;;2.00;;
74421;SDS011;62856;51.446;8.360;2023-07-13T12:17:48;7.88;;;2.75;;
74421;SDS011;62856;51.446;8.360;2023-07-13T12:20:22;5.07;;;2.20;;
74421;SDS011;62856;51.446;8.360;2023-07-13T12:22:51;4.75;;;1.60;;
74421;SDS011;62856;51.446;8.360;2023-07-13T12:25:18;5.70;;;1.90;;
74421;SDS011;62856;51.446;8.360;2023-07-13T12:27:48;7.55;;;2.10;;
74421;SDS011;62856;51.446;8.360;2023-07-13T12:30:31;3.80;;;1.50;;
74421;SDS011;62856;51.446;8.360;2023-07-13T12:33:02;6.13;;;1.80;;
74421;SDS011;62856;51.446;8.360;2023-07-13T12:35:40;5.43;;;1.60;;
74421;SDS011;62856;51.446;8.360;2023-07-13T12:38:15;5.07;;;1.67;;
74421;SDS011;62856;51.446;8.360;2023-07-13T12:40:41;5.05;;;1.40;;
74421;SDS011;62856;51.446;8.360;2023-07-13T12:43:10;4.93;;;1.52;;
74421;SDS011;62856;51.446;8.360;2023-07-13T12:45:37;5.68;;;1.80;;
74421;SDS011;62856;51.446;8.360;2023-07-13T12:48:12;5.65;;;1.50;;
74421;SDS011;62856;51.446;8.360;2023-07-13T12:50:41;3.78;;;1.40;;
74421;SDS011;62856;51.446;8.360;2023-07-13T12:53:15;5.45;;;1.60;;
74421;SDS011;62856;51.446;8.360;2023-07-13T12:55:45;3.47;;;1.40;;
74421;SDS011;62856;51.446;8.360;2023-07-13T12:58:16;4.65;;;1.30;;
74421;SDS011;62856;51.446;8.360;2023-07-13T13:00:48;4.03;;;1.27;;
74421;SDS011;62856;51.446;8.360;2023-07-13T13:05:48;4.82;;;1.48;;
74421;SDS011;62856;51.446;8.360;2023-07-13T13:08:14;2.78;;;1.00;;
74421;SDS011;62856;51.446;8.360;2023-07-13T13:10:39;5.57;;;1.73;;
74421;SDS011;62856;51.446;8.360;2023-07-13T13:13:05;4.85;;;1.20;;
74421;SDS011;62856;51.446;8.360;2023-07-13T13:15:31;2.83;;;0.90;;
74421;SDS011;62856;51.446;8.360;2023-07-13T13:17:57;4.85;;;1.10;;
74421;SDS011;62856;51.446;8.360;2023-07-13T13:20:24;5.70;;;1.40;;
74421;SDS011;62856;51.446;8.360;2023-07-13T13:22:50;3.97;;;0.90;;
74421;SDS011;62856;51.446;8.360;2023-07-13T13:25:17;3.17;;;1.20;;
74421;SDS011;62856;51.446;8.360;2023-07-13T13:27:43;5.20;;;1.33;;
74421;SDS011;62856;51.446;8.360;2023-07-13T13:30:13;3.05;;;0.98;;
74421;SDS011;62856;51.446;8.360;2023-07-13T13:32:46;3.63;;;1.10;;
74421;SDS011;62856;51.446;8.360;2023-07-13T13:35:14;3.42;;;1.20;;
74421;SDS011;62856;51.446;8.360;2023-07-13T13:37:40;4.70;;;1.60;;
74421;SDS011;62856;51.446;8.360;2023-07-13T13:40:17;3.58;;;1.15;;
74421;SDS011;62856;51.446;8.360;2023-07-13T13:42:45;5.07;;;1.27;;
74421;SDS011;62856;51.446;8.360;2023-07-13T13:45:11;3.90;;;1.33;;
74421;SDS011;62856;51.446;8.360;2023-07-13T13:47:41;3.35;;;1.13;;
74421;SDS011;62856;51.446;8.360;2023-07-13T13:50:12;2.70;;;1.00;;
74421;SDS011;62856;51.446;8.360;2023-07-13T13:52:39;3.08;;;1.10;;
74421;SDS011;62856;51.446;8.360;2023-07-13T13:55:15;5.88;;;1.45;;
74421;SDS011;62856;51.446;8.360;2023-07-13T13:57:44;3.38;;;1.10;;
74421;SDS011;62856;51.446;8.360;2023-07-13T14:00:11;4.50;;;1.15;;
74421;SDS011;62856;51.446;8.360;2023-07-13T14:02:39;3.65;;;1.00;;
74421;SDS011;62856;51.446;8.360;2023-07-13T14:05:09;4.63;;;1.13;;
74421;SDS011;62856;51.446;8.360;2023-07-13T14:07:38;3.60;;;1.27;;
74421;SDS011;62856;51.446;8.360;2023-07-13T14:10:08;4.65;;;1.20;;
74421;SDS011;62856;51.446;8.360;2023-07-13T14:12:37;5.78;;;1.60;;
74421;SDS011;62856;51.446;8.360;2023-07-13T14:15:03;3.28;;;1.20;;
74421;SDS011;62856;51.446;8.360;2023-07-13T14:17:29;4.43;;;1.15;;
74421;SDS011;62856;51.446;8.360;2023-07-13T14:19:55;3.40;;;1.30;;
74421;SDS011;62856;51.446;8.360;2023-07-13T14:22:25;3.30;;;1.20;;
74421;SDS011;62856;51.446;8.360;2023-07-13T14:24:52;3.33;;;1.25;;
74421;SDS011;62856;51.446;8.360;2023-07-13T14:27:19;5.70;;;1.30;;
74421;SDS011;62856;51.446;8.360;2023-07-13T14:29:45;4.20;;;1.25;;
74421;SDS011;62856;51.446;8.360;2023-07-13T14:32:11;6.95;;;1.77;;
74421;SDS011;62856;51.446;8.360;2023-07-13T14:34:37;2.95;;;1.10;;
74421;SDS011;62856;51.446;8.360;2023-07-13T14:37:03;5.93;;;1.20;;
74421;SDS011;62856;51.446;8.360;2023-07-13T14:39:30;5.10;;;1.40;;
74421;SDS011;62856;51.446;8.360;2023-07-13T14:41:56;6.63;;;1.25;;
74421;SDS011;62856;51.446;8.360;2023-07-13T14:44:25;4.53;;;1.25;;
74421;SDS011;62856;51.446;8.360;2023-07-13T14:46:54;4.72;;;1.20;;
74421;SDS011;62856;51.446;8.360;2023-07-13T14:51:45;3.65;;;1.20;;
74421;SDS011;62856;51.446;8.360;2023-07-13T14:54:11;3.25;;;1.33;;
74421;SDS011;62856;51.446;8.360;2023-07-13T14:56:40;3.85;;;1.20;;
74421;SDS011;62856;51.446;8.360;2023-07-13T14:59:05;4.40;;;1.20;;
74421;SDS011;62856;51.446;8.360;2023-07-13T15:01:32;3.70;;;1.20;;
74421;SDS011;62856;51.446;8.360;2023-07-13T15:03:59;5.05;;;1.30;;
74421;SDS011;62856;51.446;8.360;2023-07-13T15:06:26;5.88;;;1.50;;
74421;SDS011;62856;51.446;8.360;2023-07-13T15:08:52;4.25;;;1.38;;
74421;SDS011;62856;51.446;8.360;2023-07-13T15:11:17;4.40;;;1.30;;
74421;SDS011;62856;51.446;8.360;2023-07-13T15:13:42;4.07;;;1.58;;
74421;SDS011;62856;51.446;8.360;2023-07-13T15:16:21;3.08;;;1.20;;
74421;SDS011;62856;51.446;8.360;2023-07-13T15:18:49;4.97;;;1.83;;
74421;SDS011;62856;51.446;8.360;2023-07-13T15:21:24;3.15;;;1.40;;
74421;SDS011;62856;51.446;8.360;2023-07-13T15:23:50;4.85;;;1.42;;
74421;SDS011;62856;51.446;8.360;2023-07-13T15:26:17;6.43;;;1.90;;
74421;SDS011;62856;51.446;8.360;2023-07-13T15:28:44;7.43;;;1.73;;
74421;SDS011;62856;51.446;8.360;2023-07-13T15:33:46;5.55;;;1.50;;
74421;SDS011;62856;51.446;8.360;2023-07-13T15:36:14;5.20;;;1.50;;
74421;SDS011;62856;51.446;8.360;2023-07-13T15:38:42;5.13;;;1.70;;
74421;SDS011;62856;51.446;8.360;2023-07-13T15:41:20;6.13;;;1.55;;
74421;SDS011;62856;51.446;8.360;2023-07-13T15:43:49;4.57;;;1.45;;
74421;SDS011;62856;51.446;8.360;2023-07-13T15:48:42;3.50;;;1.25;;
74421;SDS011;62856;51.446;8.360;2023-07-13T15:51:11;3.42;;;2.00;;
74421;SDS011;62856;51.446;8.360;2023-07-13T15:53:43;5.80;;;1.65;;
74421;SDS011;62856;51.446;8.360;2023-07-13T15:56:17;4.43;;;1.55;;
74421;SDS011;62856;51.446;8.360;2023-07-13T15:58:44;7.45;;;1.25;;
74421;SDS011;62856;51.446;8.360;2023-07-13T16:01:10;5.95;;;1.90;;
74421;SDS011;62856;51.446;8.360;2023-07-13T16:03:36;4.13;;;1.33;;
74421;SDS011;62856;51.446;8.360;2023-07-13T16:06:01;5.93;;;1.60;;
74421;SDS011;62856;51.446;8.360;2023-07-13T16:08:29;4.85;;;1.48;;
74421;SDS011;62856;51.446;8.360;2023-07-13T16:10:56;7.70;;;2.00;;
74421;SDS011;62856;51.446;8.360;2023-07-13T16:13:25;5.78;;;1.90;;
74421;SDS011;62856;51.446;8.360;2023-07-13T16:15:51;4.10;;;1.38;;
74421;SDS011;62856;51.446;8.360;2023-07-13T16:18:18;4.88;;;1.35;;
74421;SDS011;62856;51.446;8.360;2023-07-13T16:20:44;5.90;;;1.50;;
74421;SDS011;62856;51.446;8.360;2023-07-13T16:23:11;5.53;;;1.50;;
74421;SDS011;62856;51.446;8.360;2023-07-13T16:25:38;4.80;;;1.50;;
74421;SDS011;62856;51.446;8.360;2023-07-13T16:28:05;4.03;;;1.42;;
74421;SDS011;62856;51.446;8.360;2023-07-13T16:30:31;5.32;;;1.85;;
74421;SDS011;62856;51.446;8.360;2023-07-13T16:33:01;6.05;;;1.50;;
74421;SDS011;62856;51.446;8.360;2023-07-13T16:35:31;7.75;;;1.90;;
74421;SDS011;62856;51.446;8.360;2023-07-13T16:38:00;5.47;;;1.70;;
74421;SDS011;62856;51.446;8.360;2023-07-13T16:40:28;4.68;;;1.65;;
74421;SDS011;62856;51.446;8.360;2023-07-13T16:42:56;7.15;;;1.88;;
74421;SDS011;62856;51.446;8.360;2023-07-13T16:45:24;5.13;;;1.67;;
74421;SDS011;62856;51.446;8.360;2023-07-13T16:47:51;5.35;;;1.65;;
74421;SDS011;62856;51.446;8.360;2023-07-13T16:50:19;4.18;;;1.70;;
74421;SDS011;62856;51.446;8.360;2023-07-13T16:52:50;5.10;;;1.77;;
74421;SDS011;62856;51.446;8.360;2023-07-13T16:55:19;5.60;;;1.52;;
74421;SDS011;62856;51.446;8.360;2023-07-13T16:57:55;4.32;;;1.65;;
74421;SDS011;62856;51.446;8.360;2023-07-13T17:00:29;4.07;;;1.33;;
74421;SDS011;62856;51.446;8.360;2023-07-13T17:02:57;5.63;;;2.10;;
74421;SDS011;62856;51.446;8.360;2023-07-13T17:05:30;6.32;;;1.90;;
74421;SDS011;62856;51.446;8.360;2023-07-13T17:08:29;4.13;;;1.40;;
74421;SDS011;62856;51.446;8.360;2023-07-13T17:10:57;4.28;;;1.48;;
74421;SDS011;62856;51.446;8.360;2023-07-13T17:15:51;4.40;;;1.60;;
74421;SDS011;62856;51.446;8.360;2023-07-13T17:18:21;3.42;;;1.42;;
74421;SDS011;62856;51.446;8.360;2023-07-13T17:20:49;6.90;;;1.75;;
74421;SDS011;62856;51.446;8.360;2023-07-13T17:25:44;6.35;;;2.33;;
74421;SDS011;62856;51.446;8.360;2023-07-13T17:28:11;5.60;;;1.30;;
74421;SDS011;62856;51.446;8.360;2023-07-13T17:30:40;4.88;;;1.58;;
74421;SDS011;62856;51.446;8.360;2023-07-13T17:35:55;4.97;;;1.63;;
74421;SDS011;62856;51.446;8.360;2023-07-13T17:38:29;6.53;;;1.67;;
74421;SDS011;62856;51.446;8.360;2023-07-13T17:41:09;5.90;;;2.10;;
74421;SDS011;62856;51.446;8.360;2023-07-13T17:43:42;5.13;;;1.67;;
74421;SDS011;62856;51.446;8.360;2023-07-13T17:46:16;6.88;;;1.85;;
74421;SDS011;62856;51.446;8.360;2023-07-13T17:48:46;5.85;;;1.75;;
74421;SDS011;62856;51.446;8.360;2023-07-13T17:51:15;5.03;;;1.63;;
74421;SDS011;62856;51.446;8.360;2023-07-13T17:53:42;5.75;;;1.92;;
74421;SDS011;62856;51.446;8.360;2023-07-13T17:56:17;7.00;;;1.65;;
74421;SDS011;62856;51.446;8.360;2023-07-13T17:58:42;4.30;;;1.40;;
74421;SDS011;62856;51.446;8.360;2023-07-13T18:01:09;5.43;;;1.75;;
74421;SDS011;62856;51.446;8.360;2023-07-13T18:03:40;4.40;;;1.60;;
74421;SDS011;62856;51.446;8.360;2023-07-13T18:06:14;4.88;;;1.50;;
74421;SDS011;62856;51.446;8.360;2023-07-13T18:08:44;4.70;;;1.63;;
74421;SDS011;62856;51.446;8.360;2023-07-13T18:11:11;6.18;;;1.90;;
74421;SDS011;62856;51.446;8.360;2023-07-13T18:13:36;4.45;;;1.60;;
74421;SDS011;62856;51.446;8.360;2023-07-13T18:16:05;6.13;;;2.00;;
74421;SDS011;62856;51.446;8.360;2023-07-13T18:18:45;4.45;;;1.60;;
74421;SDS011;62856;51.446;8.360;2023-07-13T18:21:11;4.95;;;1.60;;
74421;SDS011;62856;51.446;8.360;2023-07-13T18:23:39;4.63;;;1.70;;
74421;SDS011;62856;51.446;8.360;2023-07-13T18:26:08;4.47;;;1.40;;
74421;SDS011;62856;51.446;8.360;2023-07-13T18:28:35;3.80;;;1.48;;
74421;SDS011;62856;51.446;8.360;2023-07-13T18:31:00;5.20;;;2.10;;
74421;SDS011;62856;51.446;8.360;2023-07-13T18:33:27;5.68;;;1.55;;
74421;SDS011;62856;51.446;8.360;2023-07-13T18:35:58;4.80;;;1.40;;
74421;SDS011;62856;51.446;8.360;2023-07-13T18:38:26;5.35;;;1.70;;
74421;SDS011;62856;51.446;8.360;2023-07-13T18:40:53;5.85;;;1.27;;
74421;SDS011;62856;51.446;8.360;2023-07-13T18:43:20;5.97;;;1.30;;
74421;SDS011;62856;51.446;8.360;2023-07-13T18:45:48;4.75;;;1.55;;
74421;SDS011;62856;51.446;8.360;2023-07-13T18:48:21;5.95;;;1.75;;
74421;SDS011;62856;51.446;8.360;2023-07-13T18:50:48;4.60;;;1.67;;
74421;SDS011;62856;51.446;8.360;2023-07-13T18:53:16;4.70;;;1.35;;
74421;SDS011;62856;51.446;8.360;2023-07-13T18:55:42;3.85;;;1.40;;
74421;SDS011;62856;51.446;8.360;2023-07-13T18:58:12;5.28;;;1.60;;
74421;SDS011;62856;51.446;8.360;2023-07-13T19:00:39;5.80;;;1.70;;
74421;SDS011;62856;51.446;8.360;2023-07-13T19:03:17;4.82;;;1.42;;
74421;SDS011;62856;51.446;8.360;2023-07-13T19:05:46;4.40;;;1.40;;
74421;SDS011;62856;51.446;8.360;2023-07-13T19:08:17;4.90;;;1.60;;
74421;SDS011;62856;51.446;8.360;2023-07-13T19:10:44;4.60;;;1.48;;
74421;SDS011;62856;51.446;8.360;2023-07-13T19:13:12;5.13;;;1.40;;
74421;SDS011;62856;51.446;8.360;2023-07-13T19:15:43;3.88;;;1.40;;
74421;SDS011;62856;51.446;8.360;2023-07-13T19:18:13;5.40;;;1.60;;
74421;SDS011;62856;51.446;8.360;2023-07-13T19:20:41;4.15;;;1.48;;
74421;SDS011;62856;51.446;8.360;2023-07-13T19:25:48;3.78;;;1.40;;
74421;SDS011;62856;51.446;8.360;2023-07-13T19:31:01;5.30;;;1.30;;
74421;SDS011;62856;51.446;8.360;2023-07-13T19:33:27;4.05;;;1.30;;
74421;SDS011;62856;51.446;8.360;2023-07-13T19:35:54;3.33;;;1.15;;
74421;SDS011;62856;51.446;8.360;2023-07-13T19:38:24;4.20;;;1.30;;
74421;SDS011;62856;51.446;8.360;2023-07-13T19:40:51;4.35;;;1.30;;
74421;SDS011;62856;51.446;8.360;2023-07-13T19:43:17;3.80;;;1.30;;
74421;SDS011;62856;51.446;8.360;2023-07-13T19:45:42;5.32;;;1.40;;
74421;SDS011;62856;51.446;8.360;2023-07-13T19:48:08;4.30;;;1.23;;
74421;SDS011;62856;51.446;8.360;2023-07-13T19:50:34;3.97;;;1.40;;
74421;SDS011;62856;51.446;8.360;2023-07-13T19:53:02;2.95;;;1.25;;
74421;SDS011;62856;51.446;8.360;2023-07-13T19:55:28;5.45;;;1.40;;
74421;SDS011;62856;51.446;8.360;2023-07-13T19:57:54;4.55;;;1.45;;
74421;SDS011;62856;51.446;8.360;2023-07-13T20:00:24;3.72;;;1.23;;
74421;SDS011;62856;51.446;8.360;2023-07-13T20:02:52;6.03;;;1.40;;
74421;SDS011;62856;51.446;8.360;2023-07-13T20:05:20;5.15;;;1.60;;
74421;SDS011;62856;51.446;8.360;2023-07-13T20:07:48;4.78;;;1.40;;
74421;SDS011;62856;51.446;8.360;2023-07-13T20:10:24;4.75;;;1.30;;
74421;SDS011;62856;51.446;8.360;2023-07-13T20:12:54;4.50;;;1.40;;
74421;SDS011;62856;51.446;8.360;2023-07-13T20:17:53;4.45;;;1.20;;
74421;SDS011;62856;51.446;8.360;2023-07-13T20:20:21;5.00;;;1.48;;
74421;SDS011;62856;51.446;8.360;2023-07-13T20:22:47;4.72;;;1.25;;
74421;SDS011;62856;51.446;8.360;2023-07-13T20:25:18;4.05;;;1.48;;
74421;SDS011;62856;51.446;8.360;2023-07-13T20:27:47;6.05;;;1.50;;
74421;SDS011;62856;51.446;8.360;2023-07-13T20:30:13;4.47;;;1.40;;
74421;SDS011;62856;51.446;8.360;2023-07-13T20:32:38;3.30;;;1.75;;
74421;SDS011;62856;51.446;8.360;2023-07-13T20:35:21;4.68;;;1.40;;
74421;SDS011;62856;51.446;8.360;2023-07-13T20:37:50;3.85;;;1.38;;
74421;SDS011;62856;51.446;8.360;2023-07-13T20:40:17;5.15;;;1.30;;
74421;SDS011;62856;51.446;8.360;2023-07-13T20:42:44;4.47;;;1.20;;
74421;SDS011;62856;51.446;8.360;2023-07-13T20:45:10;4.38;;;1.30;;
74421;SDS011;62856;51.446;8.360;2023-07-13T20:47:35;3.72;;;1.23;;
74421;SDS011;62856;51.446;8.360;2023-07-13T20:50:02;5.35;;;1.35;;
74421;SDS011;62856;51.446;8.360;2023-07-13T20:52:28;6.38;;;1.60;;
74421;SDS011;62856;51.446;8.360;2023-07-13T20:54:53;4.68;;;1.48;;
74421;SDS011;62856;51.446;8.360;2023-07-13T20:57:19;5.72;;;1.30;;
74421;SDS011;62856;51.446;8.360;2023-07-13T20:59:45;4.25;;;1.30;;
74421;SDS011;62856;51.446;8.360;2023-07-13T21:04:47;7.80;;;1.50;;
74421;SDS011;62856;51.446;8.360;2023-07-13T21:07:17;4.32;;;1.30;;
74421;SDS011;62856;51.446;8.360;2023-07-13T21:09:44;5.05;;;1.30;;
74421;SDS011;62856;51.446;8.360;2023-07-13T21:12:10;5.78;;;1.60;;
74421;SDS011;62856;51.446;8.360;2023-07-13T21:14:35;4.93;;;1.40;;
74421;SDS011;62856;51.446;8.360;2023-07-13T21:17:04;7.10;;;1.60;;
74421;SDS011;62856;51.446;8.360;2023-07-13T21:19:29;5.20;;;1.50;;
74421;SDS011;62856;51.446;8.360;2023-07-13T21:21:57;4.70;;;1.30;;
74421;SDS011;62856;51.446;8.360;2023-07-13T21:24:24;5.35;;;1.55;;
74421;SDS011;62856;51.446;8.360;2023-07-13T21:26:49;5.88;;;1.55;;
74421;SDS011;62856;51.446;8.360;2023-07-13T21:29:15;4.97;;;1.33;;
74421;SDS011;62856;51.446;8.360;2023-07-13T21:31:40;4.05;;;1.60;;
74421;SDS011;62856;51.446;8.360;2023-07-13T21:34:16;4.15;;;1.42;;
74421;SDS011;62856;51.446;8.360;2023-07-13T21:36:44;4.25;;;1.65;;
74421;SDS011;62856;51.446;8.360;2023-07-13T21:39:12;4.15;;;1.30;;
74421;SDS011;62856;51.446;8.360;2023-07-13T21:41:41;6.15;;;1.55;;
74421;SDS011;62856;51.446;8.360;2023-07-13T21:44:41;3.63;;;1.38;;
74421;SDS011;62856;51.446;8.360;2023-07-13T21:46:59;5.13;;;1.70;;
74421;SDS011;62856;51.446;8.360;2023-07-13T21:49:25;7.10;;;1.67;;
74421;SDS011;62856;51.446;8.360;2023-07-13T21:51:51;4.45;;;1.60;;
74421;SDS011;62856;51.446;8.360;2023-07-13T21:54:18;5.20;;;1.70;;
74421;SDS011;62856;51.446;8.360;2023-07-13T21:56:49;3.83;;;1.33;;
74421;SDS011;62856;51.446;8.360;2023-07-13T22:01:51;5.97;;;1.60;;
74421;SDS011;62856;51.446;8.360;2023-07-13T22:04:17;5.50;;;1.77;;
74421;SDS011;62856;51.446;8.360;2023-07-13T22:06:47;5.57;;;2.00;;
74421;SDS011;62856;51.446;8.360;2023-07-13T22:09:14;4.80;;;1.35;;
74421;SDS011;62856;51.446;8.360;2023-07-13T22:11:41;5.93;;;1.50;;
74421;SDS011;62856;51.446;8.360;2023-07-13T22:14:07;3.78;;;1.35;;
74421;SDS011;62856;51.446;8.360;2023-07-13T22:16:32;3.90;;;1.40;;
74421;SDS011;62856;51.446;8.360;2023-07-13T22:19:00;4.40;;;1.50;;
74421;SDS011;62856;51.446;8.360;2023-07-13T22:21:30;6.18;;;1.60;;
74421;SDS011;62856;51.446;8.360;2023-07-13T22:23:56;4.10;;;1.35;;
74421;SDS011;62856;51.446;8.360;2023-07-13T22:28:57;4.85;;;1.60;;
74421;SDS011;62856;51.446;8.360;2023-07-13T22:31:24;6.68;;;1.75;;
74421;SDS011;62856;51.446;8.360;2023-07-13T22:33:53;5.80;;;1.80;;
74421;SDS011;62856;51.446;8.360;2023-07-13T22:36:18;4.28;;;1.70;;
74421;SDS011;62856;51.446;8.360;2023-07-13T22:38:44;4.78;;;1.65;;
74421;SDS011;62856;51.446;8.360;2023-07-13T22:41:13;5.00;;;1.75;;
74421;SDS011;62856;51.446;8.360;2023-07-13T22:43:40;5.90;;;1.77;;
74421;SDS011;62856;51.446;8.360;2023-07-13T22:46:08;4.18;;;1.50;;
74421;SDS011;62856;51.446;8.360;2023-07-13T22:48:50;3.25;;;1.40;;
74421;SDS011;62856;51.446;8.360;2023-07-13T22:51:20;3.67;;;1.40;;
74421;SDS011;62856;51.446;8.360;2023-07-13T22:53:46;3.80;;;1.48;;
74421;SDS011;62856;51.446;8.360;2023-07-13T22:56:12;5.05;;;1.40;;
74421;SDS011;62856;51.446;8.360;2023-07-13T22:58:38;4.70;;;1.63;;
74421;SDS011;62856;51.446;8.360;2023-07-13T23:01:05;4.18;;;1.27;;
74421;SDS011;62856;51.446;8.360;2023-07-13T23:03:40;5.03;;;2.03;;
74421;SDS011;62856;51.446;8.360;2023-07-13T23:06:17;4.78;;;1.35;;
74421;SDS011;62856;51.446;8.360;2023-07-13T23:08:44;4.15;;;1.55;;
74421;SDS011;62856;51.446;8.360;2023-07-13T23:11:10;4.90;;;1.80;;
74421;SDS011;62856;51.446;8.360;2023-07-13T23:13:35;4.20;;;1.60;;
74421;SDS011;62856;51.446;8.360;2023-07-13T23:16:01;4.20;;;1.83;;
74421;SDS011;62856;51.446;8.360;2023-07-13T23:18:26;3.67;;;1.42;;
74421;SDS011;62856;51.446;8.360;2023-07-13T23:20:52;5.80;;;1.70;;
74421;SDS011;62856;51.446;8.360;2023-07-13T23:23:18;5.57;;;1.58;;
74421;SDS011;62856;51.446;8.360;2023-07-13T23:25:43;4.07;;;1.45;;
74421;SDS011;62856;51.446;8.360;2023-07-13T23:28:10;4.93;;;1.40;;
74421;SDS011;62856;51.446;8.360;2023-07-13T23:30:35;4.35;;;1.70;;
74421;SDS011;62856;51.446;8.360;2023-07-13T23:33:13;4.70;;;1.33;;
74421;SDS011;62856;51.446;8.360;2023-07-13T23:35:47;3.72;;;1.27;;
74421;SDS011;62856;51.446;8.360;2023-07-13T23:38:14;6.50;;;2.33;;
74421;SDS011;62856;51.446;8.360;2023-07-13T23:40:40;3.35;;;1.50;;
74421;SDS011;62856;51.446;8.360;2023-07-13T23:43:05;5.50;;;1.80;;
74421;SDS011;62856;51.446;8.360;2023-07-13T23:45:31;5.20;;;1.40;;
74421;SDS011;62856;51.446;8.360;2023-07-13T23:47:57;4.65;;;1.60;;
74421;SDS011;62856;51.446;8.360;2023-07-13T23:50:26;4.47;;;1.38;;
74421;SDS011;62856;51.446;8.360;2023-07-13T23:52:54;6.50;;;1.60;;
74421;SDS011;62856;51.446;8.360;2023-07-13T23:55:27;4.22;;;1.40;;
74421;SDS011;62856;51.446;8.360;2023-07-13T23:57:57;3.83;;;1.42;;
